首页
METAR-TAF:

METAR-TAF

机场 :

诺曼·曼利国际机场

京斯敦, 牙买加

纬度: 17-56N, 经度: 076-47W, 海拔: 3米

当前天气观测

该预报发布于12分钟前的14:00 UTC
风速4节,风向西北
温度 29°C
湿度 58%
气压 1015 hPa
能见度10公里或以上
少量云层高于2200英尺

METAR: MKJP 201400Z 31004KT 9999 FEW022 29/20 Q1015

时间: 09:12 (14:12 UTC)

预报

该预报发布于2小时和57分钟前的11:15 UTC
预报有效从20日的 12点(UTC)到 21日的 12点(UTC)
风速5节,风向北转西北
能见度10公里或以上
少量云层高于2200英尺
散云层高于3200英尺
成为
从 20日的 14点(UTC)到 20日的 16点(UTC)
风速15节,风向南转南东
散云层高于2000英尺
少量云层高于2200英尺, 积雨云.
成为
从 21日的 00点(UTC)到 21日的 02点(UTC)
风速5节,风向
少量云层高于2000英尺
少量云层高于2200英尺, 积雨云.

TAF: MKJP 201115Z 2012/2112 34005KT 9999 FEW022 SCT032 BECMG 2014/2016 15015KT SCT020 FEW022CB BECMG 2100/2102 35005KT FEW020 FEW022CB

超过4000个机场的气象观测和天气预报(METAR&TAF报告)。

可查询的气象台以黄色和红色小点在地图上表示。

将鼠标移到小点上方,可查看气象台名称。

然后点击查看天气观测和预报。

如需切换地图:点击带黑十字的绿色按钮放大地图;点击带横线的绿色按钮缩小地图;或者点击绿色箭头查看邻近地区的地图。


METAR-TAF: